Погода Кшеменнена 2 недели

Подляское воеводство, Польша

17 - 30 июля
  • 17июля
    Сегодня
    +17°
    +29°
    Ясно и безоблачно
    ВремяПогодаТемператураВлажностьДавлениеВетер, м/сВероятность осадков
    02:00Небольшая облачность, ливень+21°C93 %742 мм1.2 м/с73 %
    05:00Ясно и безоблачно+19°C97 %743 мм1.5 м/с44 %
    08:00Практически безоблачно+22°C86 %744 мм3.9 м/с2 %
    11:00Небольшая облачность+26°C58 %745 мм4.0 м/с2 %
    14:00Ясно и безоблачно+29°C46 %745 мм3.7 м/с2 %
    17:00Практически безоблачно+28°C42 %745 мм3.7 м/с2 %
    20:00Практически безоблачно+25°C46 %746 мм2.7 м/с2 %
    23:00Ясно и безоблачно+19°C62 %746 мм2.9 м/с2 %
  • 18июля
    Четверг
    +13°
    +27°
    Практически безоблачно
    ВремяПогодаТемператураВлажностьДавлениеВетер, м/сВероятность осадков
    02:00Облачно с прояснениями+18°C81 %747 мм3.1 м/с5 %
    05:00Облачно с прояснениями+18°C82 %747 мм2.2 м/с47 %
    08:00Ясно и безоблачно+21°C75 %747 мм0.8 м/с11 %
    11:00Ясно и безоблачно+24°C55 %747 мм3.4 м/с36 %
    14:00Практически безоблачно+26°C46 %747 мм5.1 м/с28 %
    17:00Практически безоблачно+25°C43 %747 мм5.1 м/с12 %
    20:00Практически безоблачно+22°C54 %747 мм2.7 м/с2 %
    23:00Ясно и безоблачно+17°C66 %748 мм3.3 м/с2 %
  • 19июля
    Пятница
    +11°
    +25°
    Ясно и безоблачно
    ВремяПогодаТемператураВлажностьДавлениеВетер, м/сВероятность осадков
    02:00Небольшая облачность+15°C79 %748 мм2.8 м/с2 %
    05:00Небольшая облачность+14°C85 %748 мм2.4 м/с2 %
    08:00Практически безоблачно+18°C74 %748 мм2.6 м/с2 %
    11:00Ясно и безоблачно+22°C55 %747 мм3.9 м/с2 %
    14:00Ясно и безоблачно+24°C46 %747 мм4.5 м/с2 %
    17:00Ясно и безоблачно+24°C44 %746 мм4.4 м/с2 %
    20:00Ясно и безоблачно+21°C53 %746 мм3.2 м/с2 %
    23:00Ясно и безоблачно+16°C62 %745 мм3.1 м/с2 %
  • 20июля
    Суббота
    +14°
    +26°
    Облачно с прояснениями
    ВремяПогодаТемператураВлажностьДавлениеВетер, м/сВероятность осадков
    02:00Ясно и безоблачно+13°C78 %745 мм1.8 м/с2 %
    05:00Ясно и безоблачно+12°C92 %745 мм1.8 м/с2 %
    08:00Практически безоблачно+17°C75 %745 мм2.0 м/с2 %
    11:00Ясно и безоблачно+21°C53 %745 мм1.9 м/с2 %
    14:00Облачно с прояснениями+25°C44 %744 мм1.8 м/с4 %
    17:00Облачно с прояснениями+26°C40 %743 мм2.6 м/с3 %
    20:00Практически безоблачно+23°C55 %743 мм2.4 м/с3 %
    23:00Ясно и безоблачно+18°C69 %743 мм1.8 м/с2 %
  • 21июля
    Воскресенье
    +14°
    +27°
    Облачно с прояснениями
    ВремяПогодаТемператураВлажностьДавлениеВетер, м/сВероятность осадков
    02:00Ясно и безоблачно+16°C83 %742 мм1.8 м/с2 %
    05:00Ясно и безоблачно+15°C90 %742 мм1.9 м/с2 %
    08:00Ясно и безоблачно+20°C70 %742 мм1.2 м/с2 %
    11:00Небольшая облачность+24°C49 %742 мм1.6 м/с6 %
    14:00Облачно с прояснениями+27°C40 %741 мм2.6 м/с10 %
    17:00Практически безоблачно+27°C38 %740 мм2.6 м/с7 %
    20:00Практически безоблачно+23°C56 %739 мм1.4 м/с2 %
    23:00Ясно и безоблачно+19°C56 %739 мм3.8 м/с2 %
Мы используем cookies
Соглашаюсь